< Typhoon 201609 2016 Season Typhoon 201611 >
Typhoon 201610 (LIONROCK)
General InformationTrack Information on Google MapsDetailed Wind InformationForecast History on Google MapsAccess Analytics MapList of All Images || NewsDisaster Info.WeblogTrackbackTyphoon FrontTwiphoonTyphoon Now!Typhoon ImaginationDisaster Info. XMLResourceGoogle EarthGE AnimationAtom FeedGeoJSON
Detalied Best Track (Time Zone = UTC)
Year Month Day Hour Lat. Long. Pressure (hPa) Wind (kt) Class Image Chart
2016 8 17 00 26.4 159.1 996 0 2 Image Chart
2016 8 17 06 27.0 157.0 996 0 2 Image Chart
2016 8 17 12 27.4 155.4 996 0 2 Image Chart
2016 8 17 18 28.3 153.6 996 0 2 Image Chart
2016 8 18 00 29.3 152.0 996 0 2 Image Chart
2016 8 18 06 30.4 150.4 996 0 2 Image Chart
2016 8 18 12 31.4 148.6 996 0 2 Image Chart
2016 8 18 18 32.2 146.8 996 0 2 Image Chart
2016 8 19 00 32.9 144.9 996 0 2 Image Chart
2016 8 19 06 33.1 142.8 996 0 2 Image Chart
2016 8 19 12 33.1 141.3 996 0 2 Image Chart
2016 8 19 18 32.3 139.7 996 0 2 Image Chart
2016 8 20 00 31.5 138.5 996 0 2 Image Chart
2016 8 20 06 31.0 137.6 996 0 2 Image Chart
2016 8 20 12 30.5 136.7 996 0 2 Image Chart
2016 8 20 18 30.1 135.5 996 0 2 Image Chart
2016 8 21 00 29.8 134.3 996 0 2 Image Chart
2016 8 21 06 29.5 133.7 996 0 2 Image Chart
2016 8 21 12 29.2 133.3 992 35 3 Image Chart
2016 8 21 18 28.8 133.2 990 40 3 Image Chart
2016 8 22 00 28.8 133.4 990 40 3 Image Chart
2016 8 22 06 28.7 133.7 990 40 3 Image Chart
2016 8 22 12 28.5 134.1 990 40 3 Image Chart
2016 8 22 18 28.2 134.3 990 45 3 Image Chart
2016 8 23 00 28.0 134.4 985 50 4 Image Chart
2016 8 23 06 27.3 134.2 980 55 4 Image Chart
2016 8 23 12 26.6 134.0 975 60 4 Image Chart
2016 8 23 18 25.8 133.3 965 70 5 Image Chart
2016 8 24 00 25.3 132.8 960 75 5 Image Chart
2016 8 24 06 24.8 132.3 950 80 5 Image Chart
2016 8 24 12 24.4 131.8 950 80 5 Image Chart
2016 8 24 18 23.9 131.4 945 85 5 Image Chart
2016 8 25 00 23.6 131.1 945 85 5 Image Chart
2016 8 25 06 23.5 130.9 945 85 5 Image Chart
2016 8 25 12 23.5 130.8 945 85 5 Image Chart
2016 8 25 18 23.1 130.5 945 85 5 Image Chart
2016 8 26 00 23.2 131.0 945 85 5 Image Chart
2016 8 26 06 23.1 131.3 945 85 5 Image Chart
2016 8 26 12 23.2 132.1 950 80 5 Image Chart
2016 8 26 18 23.5 132.5 950 80 5 Image Chart
2016 8 27 00 23.7 133.1 945 85 5 Image Chart
2016 8 27 06 24.0 133.9 945 85 5 Image Chart
2016 8 27 12 24.5 134.6 945 85 5 Image Chart
2016 8 27 18 25.1 135.6 945 85 5 Image Chart
2016 8 28 00 26.1 136.6 945 85 5 Image Chart
2016 8 28 06 27.7 137.9 940 90 5 Image Chart
2016 8 28 12 28.5 138.8 940 90 5 Image Chart
2016 8 28 18 29.4 140.5 940 90 5 Image Chart
2016 8 29 00 30.4 141.7 945 85 5 Image Chart
2016 8 29 06 31.3 142.7 950 80 5 Image Chart
2016 8 29 12 32.3 143.4 960 75 5 Image Chart
2016 8 29 18 34.0 143.6 965 70 5 Image Chart
2016 8 29 21 34.8 143.4 965 70 5 Image Chart
2016 8 30 00 35.6 143.0 965 65 5 Image Chart
2016 8 30 03 36.6 142.4 965 65 5 Image Chart
2016 8 30 06 37.8 142.2 965 65 5 Image Chart
2016 8 30 08 38.8 142.0 965 65 5 Image Chart
2016 8 30 09 39.3 141.7 970 60 4 Image Chart
2016 8 30 12 41.3 140.0 972 60 4 Image Chart
2016 8 30 15 42.0 138.0 976 0 6 Image Chart
2016 8 30 18 43.9 135.7 980 0 6 Image Chart
Japan Meteorological Agency Best Track Data | Correction Date : 2016-09-27
< Typhoon 201609 2016 Season Typhoon 201611 >

Help